sensor_id;sensor_type;location;lat;lon;timestamp;pressure;altitude;pressure_sealevel;temperature;humidity
56142;BME280;42018;48.588;10.836;2023-07-31T00:00:43;96893.22;;;14.77;71.57
56142;BME280;42018;48.588;10.836;2023-07-31T00:03:28;96886.16;;;14.67;72.60
56142;BME280;42018;48.588;10.836;2023-07-31T00:06:13;96890.41;;;14.68;72.89
56142;BME280;42018;48.588;10.836;2023-07-31T00:08:59;96884.00;;;14.88;72.35
56142;BME280;42018;48.588;10.836;2023-07-31T00:11:45;96888.44;;;15.12;71.46
56142;BME280;42018;48.588;10.836;2023-07-31T00:14:30;96890.66;;;15.23;71.27
56142;BME280;42018;48.588;10.836;2023-07-31T00:17:17;96878.59;;;15.26;70.63
56142;BME280;42018;48.588;10.836;2023-07-31T00:20:03;96886.28;;;15.14;71.06
56142;BME280;42018;48.588;10.836;2023-07-31T00:22:48;96873.53;;;14.92;71.57
56142;BME280;42018;48.588;10.836;2023-07-31T00:25:34;96876.38;;;15.14;71.59
56142;BME280;42018;48.588;10.836;2023-07-31T00:28:19;96876.47;;;15.09;70.98
56142;BME280;42018;48.588;10.836;2023-07-31T00:31:04;96875.00;;;14.84;71.52
56142;BME280;42018;48.588;10.836;2023-07-31T00:33:50;96878.19;;;14.62;72.61
56142;BME280;42018;48.588;10.836;2023-07-31T00:36:35;96874.78;;;14.80;71.92
56142;BME280;42018;48.588;10.836;2023-07-31T00:39:20;96868.19;;;14.92;71.35
56142;BME280;42018;48.588;10.836;2023-07-31T00:42:06;96867.25;;;15.01;71.87
56142;BME280;42018;48.588;10.836;2023-07-31T00:44:51;96863.41;;;15.26;70.98
56142;BME280;42018;48.588;10.836;2023-07-31T00:47:37;96862.22;;;15.32;70.88
56142;BME280;42018;48.588;10.836;2023-07-31T00:50:24;96861.06;;;15.39;70.12
56142;BME280;42018;48.588;10.836;2023-07-31T00:53:09;96870.34;;;15.41;69.86
56142;BME280;42018;48.588;10.836;2023-07-31T00:55:55;96867.72;;;15.55;69.61
56142;BME280;42018;48.588;10.836;2023-07-31T00:58:41;96863.56;;;15.49;69.27
56142;BME280;42018;48.588;10.836;2023-07-31T01:01:27;96858.91;;;15.54;69.07
56142;BME280;42018;48.588;10.836;2023-07-31T01:04:13;96858.50;;;15.61;68.69
56142;BME280;42018;48.588;10.836;2023-07-31T01:07:04;96854.78;;;15.62;68.58
56142;BME280;42018;48.588;10.836;2023-07-31T01:10:04;96852.38;;;15.61;68.51
56142;BME280;42018;48.588;10.836;2023-07-31T01:12:53;96852.53;;;15.69;68.21
56142;BME280;42018;48.588;10.836;2023-07-31T01:15:38;96848.81;;;15.65;68.08
56142;BME280;42018;48.588;10.836;2023-07-31T01:18:24;96848.47;;;15.72;68.17
56142;BME280;42018;48.588;10.836;2023-07-31T01:27:57;96848.81;;;15.65;67.79
56142;BME280;42018;48.588;10.836;2023-07-31T01:30:47;96848.94;;;15.60;67.87
56142;BME280;42018;48.588;10.836;2023-07-31T01:33:34;96851.00;;;15.63;68.59
56142;BME280;42018;48.588;10.836;2023-07-31T01:36:20;96855.22;;;15.69;68.62
56142;BME280;42018;48.588;10.836;2023-07-31T01:39:05;96848.28;;;15.68;68.20
56142;BME280;42018;48.588;10.836;2023-07-31T01:41:51;96844.16;;;15.76;67.60
56142;BME280;42018;48.588;10.836;2023-07-31T01:44:36;96842.13;;;15.68;67.73
56142;BME280;42018;48.588;10.836;2023-07-31T01:47:21;96842.34;;;15.71;67.63
56142;BME280;42018;48.588;10.836;2023-07-31T01:50:09;96834.13;;;15.68;67.75
56142;BME280;42018;48.588;10.836;2023-07-31T01:52:54;96836.31;;;15.66;67.60
56142;BME280;42018;48.588;10.836;2023-07-31T01:55:39;96834.91;;;15.68;67.56
56142;BME280;42018;48.588;10.836;2023-07-31T01:58:25;96828.84;;;15.63;67.78
56142;BME280;42018;48.588;10.836;2023-07-31T02:01:10;96825.00;;;15.55;68.02
56142;BME280;42018;48.588;10.836;2023-07-31T02:03:55;96828.56;;;15.64;67.66
56142;BME280;42018;48.588;10.836;2023-07-31T02:06:41;96827.06;;;15.58;67.50
56142;BME280;42018;48.588;10.836;2023-07-31T02:09:26;96827.06;;;15.44;68.22
56142;BME280;42018;48.588;10.836;2023-07-31T02:12:12;96816.16;;;15.41;67.68
56142;BME280;42018;48.588;10.836;2023-07-31T02:14:59;96815.97;;;15.51;67.19
56142;BME280;42018;48.588;10.836;2023-07-31T02:17:44;96811.50;;;15.32;67.51
56142;BME280;42018;48.588;10.836;2023-07-31T02:20:29;96802.75;;;15.13;67.86
56142;BME280;42018;48.588;10.836;2023-07-31T02:23:15;96799.88;;;15.09;68.16
56142;BME280;42018;48.588;10.836;2023-07-31T02:26:00;96801.50;;;14.92;69.20
56142;BME280;42018;48.588;10.836;2023-07-31T02:28:46;96798.13;;;14.86;69.29
56142;BME280;42018;48.588;10.836;2023-07-31T02:31:31;96796.50;;;15.04;68.90
56142;BME280;42018;48.588;10.836;2023-07-31T02:34:17;96799.09;;;15.09;68.59
56142;BME280;42018;48.588;10.836;2023-07-31T02:37:02;96789.22;;;15.09;68.16
56142;BME280;42018;48.588;10.836;2023-07-31T02:39:47;96788.25;;;15.19;67.96
56142;BME280;42018;48.588;10.836;2023-07-31T02:42:33;96779.31;;;15.10;68.31
56142;BME280;42018;48.588;10.836;2023-07-31T02:45:18;96783.97;;;15.18;68.13
56142;BME280;42018;48.588;10.836;2023-07-31T02:48:04;96786.81;;;15.08;67.78
56142;BME280;42018;48.588;10.836;2023-07-31T02:50:49;96795.03;;;15.12;67.55
56142;BME280;42018;48.588;10.836;2023-07-31T02:53:34;96790.56;;;15.07;67.85
56142;BME280;42018;48.588;10.836;2023-07-31T02:56:20;96794.38;;;15.20;67.72
56142;BME280;42018;48.588;10.836;2023-07-31T02:59:05;96790.41;;;15.17;67.50
56142;BME280;42018;48.588;10.836;2023-07-31T03:01:50;96795.94;;;15.21;67.08
56142;BME280;42018;48.588;10.836;2023-07-31T03:04:36;96788.41;;;15.09;67.36
56142;BME280;42018;48.588;10.836;2023-07-31T03:07:21;96785.91;;;14.99;67.78
56142;BME280;42018;48.588;10.836;2023-07-31T03:10:07;96791.09;;;15.09;67.49
56142;BME280;42018;48.588;10.836;2023-07-31T03:12:52;96788.22;;;15.05;67.90
56142;BME280;42018;48.588;10.836;2023-07-31T03:15:37;96788.63;;;15.13;67.22
56142;BME280;42018;48.588;10.836;2023-07-31T03:18:23;96784.25;;;15.03;68.03
56142;BME280;42018;48.588;10.836;2023-07-31T03:21:09;96792.75;;;15.05;68.01
56142;BME280;42018;48.588;10.836;2023-07-31T03:23:54;96784.03;;;14.99;67.65
56142;BME280;42018;48.588;10.836;2023-07-31T03:26:40;96795.28;;;14.96;68.07
56142;BME280;42018;48.588;10.836;2023-07-31T03:29:26;96788.66;;;14.94;68.07
56142;BME280;42018;48.588;10.836;2023-07-31T03:32:12;96789.47;;;14.94;68.26
56142;BME280;42018;48.588;10.836;2023-07-31T03:34:57;96782.47;;;14.98;67.91
56142;BME280;42018;48.588;10.836;2023-07-31T03:37:43;96779.06;;;14.93;67.89
56142;BME280;42018;48.588;10.836;2023-07-31T03:40:28;96788.59;;;14.99;67.78
56142;BME280;42018;48.588;10.836;2023-07-31T03:43:14;96783.94;;;15.04;67.44
56142;BME280;42018;48.588;10.836;2023-07-31T03:46:00;96773.94;;;14.96;67.57
56142;BME280;42018;48.588;10.836;2023-07-31T03:48:46;96780.47;;;15.04;67.03
56142;BME280;42018;48.588;10.836;2023-07-31T03:51:31;96774.50;;;14.60;69.54
56142;BME280;42018;48.588;10.836;2023-07-31T03:54:16;96774.41;;;14.47;69.68
56142;BME280;42018;48.588;10.836;2023-07-31T03:57:02;96770.84;;;14.56;69.63
56142;BME280;42018;48.588;10.836;2023-07-31T03:59:47;96775.66;;;14.35;69.81
56142;BME280;42018;48.588;10.836;2023-07-31T04:02:33;96781.13;;;14.25;71.27
56142;BME280;42018;48.588;10.836;2023-07-31T04:05:18;96790.97;;;14.25;71.04
56142;BME280;42018;48.588;10.836;2023-07-31T04:08:04;96785.88;;;14.09;70.77
56142;BME280;42018;48.588;10.836;2023-07-31T04:10:49;96781.19;;;14.20;70.21
56142;BME280;42018;48.588;10.836;2023-07-31T04:13:34;96778.59;;;14.34;70.20
56142;BME280;42018;48.588;10.836;2023-07-31T04:16:20;96778.81;;;14.37;70.58
56142;BME280;42018;48.588;10.836;2023-07-31T04:19:05;96775.06;;;14.38;70.14
56142;BME280;42018;48.588;10.836;2023-07-31T04:21:50;96769.75;;;14.20;71.40
56142;BME280;42018;48.588;10.836;2023-07-31T04:24:36;96763.25;;;14.07;71.31
56142;BME280;42018;48.588;10.836;2023-07-31T04:27:21;96759.56;;;14.03;72.55
56142;BME280;42018;48.588;10.836;2023-07-31T04:30:07;96756.13;;;14.02;73.19
56142;BME280;42018;48.588;10.836;2023-07-31T04:32:52;96755.06;;;14.41;71.95
56142;BME280;42018;48.588;10.836;2023-07-31T04:35:38;96760.72;;;14.72;71.28
56142;BME280;42018;48.588;10.836;2023-07-31T04:38:23;96771.22;;;15.01;70.43
56142;BME280;42018;48.588;10.836;2023-07-31T04:41:08;96763.22;;;15.29;69.70
56142;BME280;42018;48.588;10.836;2023-07-31T04:43:54;96762.16;;;15.44;69.32
56142;BME280;42018;48.588;10.836;2023-07-31T04:46:39;96765.94;;;15.43;69.79
56142;BME280;42018;48.588;10.836;2023-07-31T04:49:24;96763.84;;;15.40;69.67
56142;BME280;42018;48.588;10.836;2023-07-31T04:52:10;96770.88;;;15.36;69.90
56142;BME280;42018;48.588;10.836;2023-07-31T04:54:55;96772.53;;;15.31;70.87
56142;BME280;42018;48.588;10.836;2023-07-31T04:57:41;96772.84;;;15.30;71.12
56142;BME280;42018;48.588;10.836;2023-07-31T05:00:26;96781.25;;;15.37;70.84
56142;BME280;42018;48.588;10.836;2023-07-31T05:03:11;96779.09;;;15.53;70.55
56142;BME280;42018;48.588;10.836;2023-07-31T05:05:57;96785.00;;;15.50;70.80
56142;BME280;42018;48.588;10.836;2023-07-31T05:08:42;96778.69;;;15.46;71.51
56142;BME280;42018;48.588;10.836;2023-07-31T05:11:27;96784.34;;;15.44;71.58
56142;BME280;42018;48.588;10.836;2023-07-31T05:14:13;96779.25;;;15.29;72.42
56142;BME280;42018;48.588;10.836;2023-07-31T05:16:58;96774.03;;;14.91;74.01
56142;BME280;42018;48.588;10.836;2023-07-31T05:19:44;96779.03;;;14.79;74.98
56142;BME280;42018;48.588;10.836;2023-07-31T05:22:29;96776.97;;;14.57;75.79
56142;BME280;42018;48.588;10.836;2023-07-31T05:25:14;96766.50;;;14.60;76.52
56142;BME280;42018;48.588;10.836;2023-07-31T05:28:00;96770.97;;;14.46;77.74
56142;BME280;42018;48.588;10.836;2023-07-31T05:30:45;96775.28;;;14.42;78.14
56142;BME280;42018;48.588;10.836;2023-07-31T05:33:31;96780.47;;;14.33;78.41
56142;BME280;42018;48.588;10.836;2023-07-31T05:36:17;96777.97;;;14.61;77.95
56142;BME280;42018;48.588;10.836;2023-07-31T05:39:02;96776.03;;;14.67;77.96
56142;BME280;42018;48.588;10.836;2023-07-31T05:41:51;96777.25;;;14.55;78.56
56142;BME280;42018;48.588;10.836;2023-07-31T05:44:37;96778.22;;;14.78;78.60
56142;BME280;42018;48.588;10.836;2023-07-31T05:47:22;96779.66;;;14.90;77.99
56142;BME280;42018;48.588;10.836;2023-07-31T05:50:08;96775.72;;;15.01;78.30
56142;BME280;42018;48.588;10.836;2023-07-31T05:52:53;96780.28;;;15.00;78.35
56142;BME280;42018;48.588;10.836;2023-07-31T05:55:38;96769.97;;;15.26;77.90
56142;BME280;42018;48.588;10.836;2023-07-31T05:58:24;96768.41;;;15.39;77.11
56142;BME280;42018;48.588;10.836;2023-07-31T06:01:09;96768.00;;;15.32;77.65
56142;BME280;42018;48.588;10.836;2023-07-31T06:03:55;96771.06;;;15.53;76.70
56142;BME280;42018;48.588;10.836;2023-07-31T06:06:40;96761.59;;;15.61;76.97
56142;BME280;42018;48.588;10.836;2023-07-31T06:09:25;96767.91;;;15.65;76.40
56142;BME280;42018;48.588;10.836;2023-07-31T06:12:11;96760.44;;;15.80;76.02
56142;BME280;42018;48.588;10.836;2023-07-31T06:14:56;96760.13;;;15.82;76.92
56142;BME280;42018;48.588;10.836;2023-07-31T06:17:42;96746.84;;;16.04;75.64
56142;BME280;42018;48.588;10.836;2023-07-31T06:20:28;96746.97;;;16.22;75.36
56142;BME280;42018;48.588;10.836;2023-07-31T06:23:13;96754.88;;;16.41;75.17
56142;BME280;42018;48.588;10.836;2023-07-31T06:25:59;96745.56;;;16.38;74.04
56142;BME280;42018;48.588;10.836;2023-07-31T06:28:44;96746.00;;;16.18;75.79
56142;BME280;42018;48.588;10.836;2023-07-31T06:31:29;96749.03;;;16.39;74.10
56142;BME280;42018;48.588;10.836;2023-07-31T06:34:15;96754.94;;;16.49;74.30
56142;BME280;42018;48.588;10.836;2023-07-31T06:37:00;96748.00;;;16.71;73.10
56142;BME280;42018;48.588;10.836;2023-07-31T06:39:46;96747.69;;;16.86;73.34
56142;BME280;42018;48.588;10.836;2023-07-31T06:42:31;96747.72;;;16.72;73.65
56142;BME280;42018;48.588;10.836;2023-07-31T06:45:17;96756.25;;;16.74;72.76
56142;BME280;42018;48.588;10.836;2023-07-31T06:48:03;96758.03;;;16.79;72.30
56142;BME280;42018;48.588;10.836;2023-07-31T06:50:49;96756.25;;;16.74;73.23
56142;BME280;42018;48.588;10.836;2023-07-31T06:53:34;96745.59;;;17.06;72.50
56142;BME280;42018;48.588;10.836;2023-07-31T06:56:21;96743.78;;;17.23;71.13
56142;BME280;42018;48.588;10.836;2023-07-31T06:59:07;96749.53;;;17.39;71.94
56142;BME280;42018;48.588;10.836;2023-07-31T07:01:53;96745.50;;;17.59;71.63
56142;BME280;42018;48.588;10.836;2023-07-31T07:04:38;96748.19;;;17.59;70.88
56142;BME280;42018;48.588;10.836;2023-07-31T07:07:23;96744.69;;;17.50;71.71
56142;BME280;42018;48.588;10.836;2023-07-31T07:10:09;96736.66;;;17.50;70.22
56142;BME280;42018;48.588;10.836;2023-07-31T07:12:55;96732.47;;;17.66;69.54
56142;BME280;42018;48.588;10.836;2023-07-31T07:15:40;96739.25;;;17.73;68.42
56142;BME280;42018;48.588;10.836;2023-07-31T07:18:26;96740.13;;;17.51;69.49
56142;BME280;42018;48.588;10.836;2023-07-31T07:21:11;96735.63;;;17.68;67.92
56142;BME280;42018;48.588;10.836;2023-07-31T07:24:00;96737.31;;;17.56;66.76
56142;BME280;42018;48.588;10.836;2023-07-31T07:26:46;96730.47;;;17.81;68.23
56142;BME280;42018;48.588;10.836;2023-07-31T07:29:31;96732.28;;;18.20;68.30
56142;BME280;42018;48.588;10.836;2023-07-31T07:32:16;96730.69;;;18.28;66.09
56142;BME280;42018;48.588;10.836;2023-07-31T07:35:03;96735.78;;;18.47;65.88
56142;BME280;42018;48.588;10.836;2023-07-31T07:37:49;96730.84;;;18.49;64.62
56142;BME280;42018;48.588;10.836;2023-07-31T07:40:41;96737.63;;;18.20;65.28
56142;BME280;42018;48.588;10.836;2023-07-31T07:43:27;96727.56;;;18.26;65.35
56142;BME280;42018;48.588;10.836;2023-07-31T07:46:12;96736.53;;;18.21;66.41
56142;BME280;42018;48.588;10.836;2023-07-31T07:48:57;96728.34;;;18.26;64.94
56142;BME280;42018;48.588;10.836;2023-07-31T07:51:43;96730.06;;;18.05;64.82
56142;BME280;42018;48.588;10.836;2023-07-31T07:54:28;96724.09;;;18.51;65.34
56142;BME280;42018;48.588;10.836;2023-07-31T07:57:13;96732.75;;;18.57;65.59
56142;BME280;42018;48.588;10.836;2023-07-31T07:59:59;96721.84;;;18.53;64.44
56142;BME280;42018;48.588;10.836;2023-07-31T08:02:44;96721.06;;;18.53;64.15
56142;BME280;42018;48.588;10.836;2023-07-31T08:05:30;96731.81;;;18.44;64.11
56142;BME280;42018;48.588;10.836;2023-07-31T08:08:19;96721.88;;;18.45;64.72
56142;BME280;42018;48.588;10.836;2023-07-31T08:11:05;96720.59;;;18.77;64.18
56142;BME280;42018;48.588;10.836;2023-07-31T08:13:50;96730.72;;;18.54;63.76
56142;BME280;42018;48.588;10.836;2023-07-31T08:16:35;96735.75;;;18.90;63.56
56142;BME280;42018;48.588;10.836;2023-07-31T08:19:21;96732.25;;;18.98;61.35
56142;BME280;42018;48.588;10.836;2023-07-31T08:22:06;96736.22;;;18.66;59.97
56142;BME280;42018;48.588;10.836;2023-07-31T08:24:51;96737.63;;;18.63;62.14
56142;BME280;42018;48.588;10.836;2023-07-31T08:27:37;96727.84;;;18.94;62.14
56142;BME280;42018;48.588;10.836;2023-07-31T08:30:22;96733.31;;;19.14;61.70
56142;BME280;42018;48.588;10.836;2023-07-31T08:33:08;96726.06;;;19.15;59.77
56142;BME280;42018;48.588;10.836;2023-07-31T08:35:53;96721.00;;;19.13;60.29
56142;BME280;42018;48.588;10.836;2023-07-31T08:38:38;96724.44;;;19.23;58.80
56142;BME280;42018;48.588;10.836;2023-07-31T08:41:24;96726.28;;;19.40;58.06
56142;BME280;42018;48.588;10.836;2023-07-31T08:44:10;96724.03;;;19.50;58.59
56142;BME280;42018;48.588;10.836;2023-07-31T08:46:56;96722.91;;;19.51;56.79
56142;BME280;42018;48.588;10.836;2023-07-31T08:49:42;96715.22;;;18.94;57.23
56142;BME280;42018;48.588;10.836;2023-07-31T08:52:27;96715.50;;;19.01;57.16
56142;BME280;42018;48.588;10.836;2023-07-31T08:55:13;96715.81;;;19.08;57.17
56142;BME280;42018;48.588;10.836;2023-07-31T08:58:00;96716.47;;;19.44;57.00
56142;BME280;42018;48.588;10.836;2023-07-31T09:00:49;96708.84;;;19.46;57.62
56142;BME280;42018;48.588;10.836;2023-07-31T09:03:36;96707.03;;;19.67;58.58
56142;BME280;42018;48.588;10.836;2023-07-31T09:06:24;96706.66;;;19.48;56.64
56142;BME280;42018;48.588;10.836;2023-07-31T09:09:10;96702.72;;;19.07;56.89
56142;BME280;42018;48.588;10.836;2023-07-31T09:12:00;96707.91;;;19.50;56.35
56142;BME280;42018;48.588;10.836;2023-07-31T09:14:46;96707.88;;;20.09;56.43
56142;BME280;42018;48.588;10.836;2023-07-31T09:17:42;96714.78;;;19.69;55.05
56142;BME280;42018;48.588;10.836;2023-07-31T09:20:27;96703.91;;;20.16;55.53
56142;BME280;42018;48.588;10.836;2023-07-31T09:23:14;96697.00;;;20.27;51.63
56142;BME280;42018;48.588;10.836;2023-07-31T09:26:00;96694.31;;;20.69;53.81
56142;BME280;42018;48.588;10.836;2023-07-31T09:28:45;96672.47;;;20.83;53.53
56142;BME280;42018;48.588;10.836;2023-07-31T09:34:36;96657.63;;;20.76;50.24
56142;BME280;42018;48.588;10.836;2023-07-31T09:37:23;96651.03;;;20.86;51.57
56142;BME280;42018;48.588;10.836;2023-07-31T09:40:09;96644.69;;;21.03;51.57
56142;BME280;42018;48.588;10.836;2023-07-31T09:42:59;96645.28;;;20.75;50.91
56142;BME280;42018;48.588;10.836;2023-07-31T09:45:45;96645.63;;;20.74;50.52
56142;BME280;42018;48.588;10.836;2023-07-31T09:48:31;96641.31;;;21.18;50.38
56142;BME280;42018;48.588;10.836;2023-07-31T09:51:17;96651.88;;;20.66;51.50
56142;BME280;42018;48.588;10.836;2023-07-31T09:54:12;96647.22;;;20.87;51.33
56142;BME280;42018;48.588;10.836;2023-07-31T09:56:58;96652.72;;;20.91;51.50
56142;BME280;42018;48.588;10.836;2023-07-31T09:59:47;96644.56;;;21.12;51.44
56142;BME280;42018;48.588;10.836;2023-07-31T10:02:33;96641.00;;;21.57;51.61
56142;BME280;42018;48.588;10.836;2023-07-31T10:05:19;96642.34;;;21.14;51.19
56142;BME280;42018;48.588;10.836;2023-07-31T10:08:06;96636.38;;;21.20;52.58
56142;BME280;42018;48.588;10.836;2023-07-31T10:10:52;96641.44;;;21.59;49.83
56142;BME280;42018;48.588;10.836;2023-07-31T10:13:38;96648.97;;;21.78;49.48
56142;BME280;42018;48.588;10.836;2023-07-31T10:16:24;96642.63;;;21.86;49.28
56142;BME280;42018;48.588;10.836;2023-07-31T10:19:10;96640.06;;;21.77;50.43
56142;BME280;42018;48.588;10.836;2023-07-31T10:21:56;96626.47;;;21.73;49.68
56142;BME280;42018;48.588;10.836;2023-07-31T10:24:42;96627.53;;;21.97;50.28
56142;BME280;42018;48.588;10.836;2023-07-31T10:27:28;96616.81;;;22.25;47.28
56142;BME280;42018;48.588;10.836;2023-07-31T10:30:17;96619.81;;;21.95;47.27
56142;BME280;42018;48.588;10.836;2023-07-31T10:33:04;96614.19;;;21.36;49.47
56142;BME280;42018;48.588;10.836;2023-07-31T10:35:50;96615.03;;;20.91;49.27
56142;BME280;42018;48.588;10.836;2023-07-31T10:38:38;96608.19;;;21.67;49.99
56142;BME280;42018;48.588;10.836;2023-07-31T10:41:29;96597.94;;;21.72;48.47
56142;BME280;42018;48.588;10.836;2023-07-31T10:44:16;96598.31;;;21.99;48.25
56142;BME280;42018;48.588;10.836;2023-07-31T10:47:02;96590.16;;;22.23;47.45
56142;BME280;42018;48.588;10.836;2023-07-31T10:49:48;96587.84;;;22.38;47.95
56142;BME280;42018;48.588;10.836;2023-07-31T10:52:34;96574.72;;;22.84;46.90
56142;BME280;42018;48.588;10.836;2023-07-31T11:00:58;96560.25;;;22.60;46.13
56142;BME280;42018;48.588;10.836;2023-07-31T11:03:49;96557.41;;;23.01;45.79
56142;BME280;42018;48.588;10.836;2023-07-31T11:06:37;96540.75;;;23.50;44.85
56142;BME280;42018;48.588;10.836;2023-07-31T11:09:22;96549.25;;;23.32;44.54
56142;BME280;42018;48.588;10.836;2023-07-31T11:12:08;96547.06;;;23.38;46.77
56142;BME280;42018;48.588;10.836;2023-07-31T11:14:56;96548.25;;;23.40;46.31
56142;BME280;42018;48.588;10.836;2023-07-31T11:17:42;96530.53;;;23.24;46.41
56142;BME280;42018;48.588;10.836;2023-07-31T11:20:29;96518.78;;;22.84;47.71
56142;BME280;42018;48.588;10.836;2023-07-31T11:23:17;96504.97;;;23.21;47.11
56142;BME280;42018;48.588;10.836;2023-07-31T11:26:05;96515.41;;;23.38;46.69
56142;BME280;42018;48.588;10.836;2023-07-31T11:28:51;96514.44;;;23.66;46.80
56142;BME280;42018;48.588;10.836;2023-07-31T11:31:42;96502.69;;;23.97;45.88
56142;BME280;42018;48.588;10.836;2023-07-31T11:34:27;96504.13;;;23.91;46.11
56142;BME280;42018;48.588;10.836;2023-07-31T11:37:13;96506.88;;;24.14;47.08
56142;BME280;42018;48.588;10.836;2023-07-31T11:40:01;96516.00;;;22.97;45.20
56142;BME280;42018;48.588;10.836;2023-07-31T11:42:47;96514.78;;;22.94;44.98
56142;BME280;42018;48.588;10.836;2023-07-31T11:45:33;96510.53;;;22.45;44.89
56142;BME280;42018;48.588;10.836;2023-07-31T11:48:28;96507.91;;;22.65;44.90
56142;BME280;42018;48.588;10.836;2023-07-31T11:51:14;96513.13;;;22.89;44.47
56142;BME280;42018;48.588;10.836;2023-07-31T11:54:01;96507.56;;;22.66;44.33
56142;BME280;42018;48.588;10.836;2023-07-31T11:56:47;96507.47;;;23.30;44.63
56142;BME280;42018;48.588;10.836;2023-07-31T11:59:34;96511.09;;;23.18;45.18
56142;BME280;42018;48.588;10.836;2023-07-31T12:02:20;96503.66;;;22.96;43.98
56142;BME280;42018;48.588;10.836;2023-07-31T12:05:13;96506.84;;;23.01;45.05
56142;BME280;42018;48.588;10.836;2023-07-31T12:07:58;96501.13;;;23.96;44.29
56142;BME280;42018;48.588;10.836;2023-07-31T12:10:44;96506.84;;;23.91;42.22
56142;BME280;42018;48.588;10.836;2023-07-31T12:13:31;96498.41;;;23.57;42.66
56142;BME280;42018;48.588;10.836;2023-07-31T12:16:17;96494.47;;;24.13;43.65
56142;BME280;42018;48.588;10.836;2023-07-31T12:19:02;96491.41;;;23.37;41.12
56142;BME280;42018;48.588;10.836;2023-07-31T12:21:57;96496.72;;;23.69;44.06
56142;BME280;42018;48.588;10.836;2023-07-31T12:24:45;96493.13;;;24.23;42.67
56142;BME280;42018;48.588;10.836;2023-07-31T12:27:33;96491.84;;;24.17;41.04
56142;BME280;42018;48.588;10.836;2023-07-31T12:30:34;96487.06;;;24.10;41.19
56142;BME280;42018;48.588;10.836;2023-07-31T12:33:20;96480.34;;;24.23;40.96
56142;BME280;42018;48.588;10.836;2023-07-31T12:36:13;96473.22;;;24.15;41.82
56142;BME280;42018;48.588;10.836;2023-07-31T12:38:59;96470.00;;;23.86;41.84
56142;BME280;42018;48.588;10.836;2023-07-31T12:41:44;96475.84;;;23.69;42.30
56142;BME280;42018;48.588;10.836;2023-07-31T12:44:29;96467.94;;;23.60;43.23
56142;BME280;42018;48.588;10.836;2023-07-31T12:47:15;96459.84;;;23.80;42.38
56142;BME280;42018;48.588;10.836;2023-07-31T12:50:00;96449.69;;;24.16;42.38
56142;BME280;42018;48.588;10.836;2023-07-31T12:52:45;96423.78;;;24.64;42.03
56142;BME280;42018;48.588;10.836;2023-07-31T12:55:32;96431.31;;;25.31;42.01
56142;BME280;42018;48.588;10.836;2023-07-31T12:58:19;96417.91;;;25.45;42.08
56142;BME280;42018;48.588;10.836;2023-07-31T13:01:04;96423.84;;;24.94;39.94
56142;BME280;42018;48.588;10.836;2023-07-31T13:03:51;96419.56;;;24.67;39.73
56142;BME280;42018;48.588;10.836;2023-07-31T13:06:36;96410.63;;;24.40;42.03
56142;BME280;42018;48.588;10.836;2023-07-31T13:09:22;96412.25;;;23.98;40.76
56142;BME280;42018;48.588;10.836;2023-07-31T13:12:07;96417.16;;;24.38;41.03
56142;BME280;42018;48.588;10.836;2023-07-31T13:14:53;96412.00;;;24.53;40.70
56142;BME280;42018;48.588;10.836;2023-07-31T13:17:38;96411.53;;;24.74;40.23
56142;BME280;42018;48.588;10.836;2023-07-31T13:20:23;96407.78;;;24.32;40.50
56142;BME280;42018;48.588;10.836;2023-07-31T13:23:09;96404.44;;;24.16;42.49
56142;BME280;42018;48.588;10.836;2023-07-31T13:25:54;96387.81;;;24.18;41.93
56142;BME280;42018;48.588;10.836;2023-07-31T13:28:39;96391.31;;;24.41;42.27
56142;BME280;42018;48.588;10.836;2023-07-31T13:31:25;96401.13;;;23.80;41.99
56142;BME280;42018;48.588;10.836;2023-07-31T13:34:10;96399.13;;;23.38;42.82
56142;BME280;42018;48.588;10.836;2023-07-31T13:36:55;96392.75;;;23.27;43.74
56142;BME280;42018;48.588;10.836;2023-07-31T13:39:41;96389.81;;;23.55;42.88
56142;BME280;42018;48.588;10.836;2023-07-31T13:42:27;96385.31;;;23.05;43.16
56142;BME280;42018;48.588;10.836;2023-07-31T13:45:13;96377.44;;;22.80;43.58
56142;BME280;42018;48.588;10.836;2023-07-31T13:47:59;96378.31;;;22.84;44.62
56142;BME280;42018;48.588;10.836;2023-07-31T13:50:44;96369.25;;;23.12;44.40
56142;BME280;42018;48.588;10.836;2023-07-31T13:53:30;96376.22;;;22.93;45.02
56142;BME280;42018;48.588;10.836;2023-07-31T13:56:16;96368.13;;;23.13;44.45
56142;BME280;42018;48.588;10.836;2023-07-31T13:59:01;96371.41;;;22.87;45.01
56142;BME280;42018;48.588;10.836;2023-07-31T14:01:47;96366.84;;;23.07;44.97
56142;BME280;42018;48.588;10.836;2023-07-31T14:04:32;96365.38;;;23.09;46.74
56142;BME280;42018;48.588;10.836;2023-07-31T14:07:18;96361.50;;;23.30;48.40
56142;BME280;42018;48.588;10.836;2023-07-31T14:10:03;96360.38;;;23.11;48.75
56142;BME280;42018;48.588;10.836;2023-07-31T14:12:49;96353.50;;;22.79;49.46
56142;BME280;42018;48.588;10.836;2023-07-31T14:15:34;96358.09;;;23.13;51.47
56142;BME280;42018;48.588;10.836;2023-07-31T14:18:21;96358.75;;;22.36;51.97
56142;BME280;42018;48.588;10.836;2023-07-31T14:21:06;96362.78;;;22.62;52.63
56142;BME280;42018;48.588;10.836;2023-07-31T14:23:51;96361.50;;;22.56;51.10
56142;BME280;42018;48.588;10.836;2023-07-31T14:26:37;96358.66;;;22.49;51.30
56142;BME280;42018;48.588;10.836;2023-07-31T14:29:22;96356.66;;;22.45;51.22
56142;BME280;42018;48.588;10.836;2023-07-31T14:32:09;96366.50;;;22.38;51.09
56142;BME280;42018;48.588;10.836;2023-07-31T14:34:54;96352.63;;;22.39;50.54
56142;BME280;42018;48.588;10.836;2023-07-31T14:37:41;96356.72;;;22.49;51.29
56142;BME280;42018;48.588;10.836;2023-07-31T14:40:27;96364.50;;;22.35;50.41
56142;BME280;42018;48.588;10.836;2023-07-31T14:43:13;96375.03;;;22.24;50.33